Terminal Aerodrome Forecast
Issued by NWS Pittsburgh, PA

Home | Current Version | Previous Version | Text Only | Print | Product List | Glossary On
Versions: 1 2 3 4 5 6 7 8 9 10 11 12 13 14 15 16 17 18 19 20 21 22 23 24 25 26 27 28 29 30 31 32 33
000
FTUS41 KPBZ 021700
TAFPIT
TAF
KPIT 021724Z 0218/0324 23008KT 6SM -SHRA SCT015 BKN040
      TEMPO 0219/0221 3SM -TSRA BKN025CB
     FM022200 25010KT P6SM BKN050
     FM030900 26003KT 4SM BR SCT250
     FM031100 00000KT 2SM BR SKC
     FM031300 VRB04KT P6SM SCT040=

USA.gov is the U.S. government's official web portal to all federal, state and local government web resources and services.